sensor_id;sensor_type;location;lat;lon;timestamp;P1;durP1;ratioP1;P2;durP2;ratioP2
74259;SDS011;62630;55.874;37.516;2023-03-05T00:01:07;2.92;;;0.75;;
74259;SDS011;62630;55.874;37.516;2023-03-05T00:06:00;0.93;;;0.63;;
74259;SDS011;62630;55.874;37.516;2023-03-05T00:08:26;2.72;;;0.80;;
74259;SDS011;62630;55.874;37.516;2023-03-05T00:10:59;0.82;;;0.50;;
74259;SDS011;62630;55.874;37.516;2023-03-05T00:13:25;1.23;;;0.70;;
74259;SDS011;62630;55.874;37.516;2023-03-05T00:15:51;5.05;;;0.70;;
74259;SDS011;62630;55.874;37.516;2023-03-05T00:18:17;1.70;;;0.98;;
74259;SDS011;62630;55.874;37.516;2023-03-05T00:20:44;1.65;;;0.60;;
74259;SDS011;62630;55.874;37.516;2023-03-05T00:23:09;0.80;;;0.63;;
74259;SDS011;62630;55.874;37.516;2023-03-05T00:25:35;0.68;;;0.63;;
74259;SDS011;62630;55.874;37.516;2023-03-05T00:28:01;1.20;;;1.00;;
74259;SDS011;62630;55.874;37.516;2023-03-05T00:30:27;1.70;;;0.90;;
74259;SDS011;62630;55.874;37.516;2023-03-05T00:32:53;0.70;;;0.60;;
74259;SDS011;62630;55.874;37.516;2023-03-05T00:35:18;1.23;;;0.70;;
74259;SDS011;62630;55.874;37.516;2023-03-05T00:37:44;0.93;;;0.60;;
74259;SDS011;62630;55.874;37.516;2023-03-05T00:40:10;1.45;;;0.60;;
74259;SDS011;62630;55.874;37.516;2023-03-05T00:42:36;2.53;;;0.70;;
74259;SDS011;62630;55.874;37.516;2023-03-05T00:45:06;3.35;;;0.70;;
74259;SDS011;62630;55.874;37.516;2023-03-05T00:47:32;2.08;;;0.60;;
74259;SDS011;62630;55.874;37.516;2023-03-05T00:49:58;0.60;;;0.60;;
74259;SDS011;62630;55.874;37.516;2023-03-05T00:52:23;2.00;;;0.63;;
74259;SDS011;62630;55.874;37.516;2023-03-05T00:54:49;0.65;;;0.50;;
74259;SDS011;62630;55.874;37.516;2023-03-05T00:57:14;2.05;;;0.82;;
74259;SDS011;62630;55.874;37.516;2023-03-05T00:59:40;0.88;;;0.50;;
74259;SDS011;62630;55.874;37.516;2023-03-05T01:02:05;2.58;;;0.65;;
74259;SDS011;62630;55.874;37.516;2023-03-05T01:04:31;1.50;;;0.68;;
74259;SDS011;62630;55.874;37.516;2023-03-05T01:06:56;1.15;;;0.65;;
74259;SDS011;62630;55.874;37.516;2023-03-05T01:09:22;1.33;;;0.73;;
74259;SDS011;62630;55.874;37.516;2023-03-05T01:11:49;1.33;;;0.70;;
74259;SDS011;62630;55.874;37.516;2023-03-05T01:14:18;1.85;;;0.73;;
74259;SDS011;62630;55.874;37.516;2023-03-05T01:16:44;2.20;;;0.80;;
74259;SDS011;62630;55.874;37.516;2023-03-05T01:19:10;1.02;;;0.70;;
74259;SDS011;62630;55.874;37.516;2023-03-05T01:21:36;2.90;;;1.00;;
74259;SDS011;62630;55.874;37.516;2023-03-05T01:24:02;2.45;;;1.17;;
74259;SDS011;62630;55.874;37.516;2023-03-05T01:26:28;0.80;;;0.57;;
74259;SDS011;62630;55.874;37.516;2023-03-05T01:28:54;2.40;;;0.60;;
74259;SDS011;62630;55.874;37.516;2023-03-05T01:31:20;0.95;;;0.82;;
74259;SDS011;62630;55.874;37.516;2023-03-05T01:33:45;1.33;;;0.50;;
74259;SDS011;62630;55.874;37.516;2023-03-05T01:36:13;3.85;;;0.80;;
74259;SDS011;62630;55.874;37.516;2023-03-05T01:38:43;1.13;;;0.52;;
74259;SDS011;62630;55.874;37.516;2023-03-05T01:41:12;0.65;;;0.65;;
74259;SDS011;62630;55.874;37.516;2023-03-05T01:43:38;3.85;;;0.60;;
74259;SDS011;62630;55.874;37.516;2023-03-05T01:46:21;0.60;;;0.50;;
74259;SDS011;62630;55.874;37.516;2023-03-05T01:48:59;2.50;;;0.93;;
74259;SDS011;62630;55.874;37.516;2023-03-05T01:51:30;1.17;;;0.70;;
74259;SDS011;62630;55.874;37.516;2023-03-05T01:54:00;1.55;;;0.70;;
74259;SDS011;62630;55.874;37.516;2023-03-05T01:56:27;1.85;;;0.65;;
74259;SDS011;62630;55.874;37.516;2023-03-05T01:58:54;6.15;;;0.70;;
74259;SDS011;62630;55.874;37.516;2023-03-05T02:01:28;3.03;;;0.50;;
74259;SDS011;62630;55.874;37.516;2023-03-05T02:03:55;0.85;;;0.40;;
74259;SDS011;62630;55.874;37.516;2023-03-05T02:06:21;0.88;;;0.43;;
74259;SDS011;62630;55.874;37.516;2023-03-05T02:08:46;2.53;;;0.80;;
74259;SDS011;62630;55.874;37.516;2023-03-05T02:11:12;0.80;;;0.57;;
74259;SDS011;62630;55.874;37.516;2023-03-05T02:13:37;0.55;;;0.52;;
74259;SDS011;62630;55.874;37.516;2023-03-05T02:16:05;1.48;;;0.60;;
74259;SDS011;62630;55.874;37.516;2023-03-05T02:18:31;1.35;;;0.50;;
74259;SDS011;62630;55.874;37.516;2023-03-05T02:23:23;1.08;;;0.45;;
74259;SDS011;62630;55.874;37.516;2023-03-05T02:25:51;5.57;;;0.80;;
74259;SDS011;62630;55.874;37.516;2023-03-05T02:28:29;1.48;;;0.60;;
74259;SDS011;62630;55.874;37.516;2023-03-05T02:30:59;1.23;;;0.60;;
74259;SDS011;62630;55.874;37.516;2023-03-05T02:33:25;2.03;;;0.73;;
74259;SDS011;62630;55.874;37.516;2023-03-05T02:35:51;4.25;;;0.80;;
74259;SDS011;62630;55.874;37.516;2023-03-05T02:38:17;2.72;;;0.65;;
74259;SDS011;62630;55.874;37.516;2023-03-05T02:43:10;1.05;;;0.70;;
74259;SDS011;62630;55.874;37.516;2023-03-05T02:45:36;1.15;;;0.55;;
74259;SDS011;62630;55.874;37.516;2023-03-05T02:48:02;1.83;;;1.17;;
74259;SDS011;62630;55.874;37.516;2023-03-05T02:50:28;0.70;;;0.50;;
74259;SDS011;62630;55.874;37.516;2023-03-05T02:52:55;3.53;;;0.93;;
74259;SDS011;62630;55.874;37.516;2023-03-05T02:55:20;1.05;;;0.60;;
74259;SDS011;62630;55.874;37.516;2023-03-05T02:57:46;2.72;;;0.60;;
74259;SDS011;62630;55.874;37.516;2023-03-05T03:00:12;0.77;;;0.57;;
74259;SDS011;62630;55.874;37.516;2023-03-05T03:02:38;0.85;;;0.45;;
74259;SDS011;62630;55.874;37.516;2023-03-05T03:05:03;2.83;;;0.77;;
74259;SDS011;62630;55.874;37.516;2023-03-05T03:07:29;3.40;;;1.10;;
74259;SDS011;62630;55.874;37.516;2023-03-05T03:09:55;2.28;;;0.60;;
74259;SDS011;62630;55.874;37.516;2023-03-05T03:12:20;2.30;;;0.80;;
74259;SDS011;62630;55.874;37.516;2023-03-05T03:14:46;1.67;;;0.80;;
74259;SDS011;62630;55.874;37.516;2023-03-05T03:17:12;2.78;;;0.82;;
74259;SDS011;62630;55.874;37.516;2023-03-05T03:19:40;2.58;;;1.02;;
74259;SDS011;62630;55.874;37.516;2023-03-05T03:22:07;1.88;;;0.60;;
74259;SDS011;62630;55.874;37.516;2023-03-05T03:24:34;1.27;;;0.70;;
74259;SDS011;62630;55.874;37.516;2023-03-05T03:27:03;1.80;;;0.93;;
74259;SDS011;62630;55.874;37.516;2023-03-05T03:29:29;1.05;;;0.60;;
74259;SDS011;62630;55.874;37.516;2023-03-05T03:31:55;1.58;;;0.52;;
74259;SDS011;62630;55.874;37.516;2023-03-05T03:34:20;1.25;;;0.82;;
74259;SDS011;62630;55.874;37.516;2023-03-05T03:36:46;0.88;;;0.43;;
74259;SDS011;62630;55.874;37.516;2023-03-05T03:39:13;1.17;;;0.43;;
74259;SDS011;62630;55.874;37.516;2023-03-05T03:41:40;1.65;;;0.70;;
74259;SDS011;62630;55.874;37.516;2023-03-05T03:44:10;1.30;;;0.80;;
74259;SDS011;62630;55.874;37.516;2023-03-05T03:46:37;3.60;;;0.63;;
74259;SDS011;62630;55.874;37.516;2023-03-05T03:49:04;1.23;;;0.57;;
74259;SDS011;62630;55.874;37.516;2023-03-05T03:51:30;0.70;;;0.60;;
74259;SDS011;62630;55.874;37.516;2023-03-05T03:53:55;1.42;;;0.75;;
74259;SDS011;62630;55.874;37.516;2023-03-05T03:56:21;3.05;;;0.82;;
74259;SDS011;62630;55.874;37.516;2023-03-05T03:58:50;2.58;;;0.60;;
74259;SDS011;62630;55.874;37.516;2023-03-05T04:01:17;0.88;;;0.60;;
74259;SDS011;62630;55.874;37.516;2023-03-05T04:03:43;1.75;;;0.82;;
74259;SDS011;62630;55.874;37.516;2023-03-05T04:06:09;1.98;;;0.60;;
74259;SDS011;62630;55.874;37.516;2023-03-05T04:08:35;1.85;;;1.02;;
74259;SDS011;62630;55.874;37.516;2023-03-05T04:11:00;1.25;;;0.68;;
74259;SDS011;62630;55.874;37.516;2023-03-05T04:13:26;0.80;;;0.50;;
74259;SDS011;62630;55.874;37.516;2023-03-05T04:15:52;1.83;;;0.47;;
74259;SDS011;62630;55.874;37.516;2023-03-05T04:18:19;1.02;;;0.50;;
74259;SDS011;62630;55.874;37.516;2023-03-05T04:20:44;1.63;;;0.65;;
74259;SDS011;62630;55.874;37.516;2023-03-05T04:23:13;5.72;;;1.27;;
74259;SDS011;62630;55.874;37.516;2023-03-05T04:25:39;1.85;;;0.50;;
74259;SDS011;62630;55.874;37.516;2023-03-05T04:28:04;2.60;;;0.60;;
74259;SDS011;62630;55.874;37.516;2023-03-05T04:30:30;2.80;;;0.57;;
74259;SDS011;62630;55.874;37.516;2023-03-05T04:32:56;1.10;;;0.57;;
74259;SDS011;62630;55.874;37.516;2023-03-05T04:35:25;3.00;;;0.77;;
74259;SDS011;62630;55.874;37.516;2023-03-05T04:37:51;2.47;;;0.70;;
74259;SDS011;62630;55.874;37.516;2023-03-05T04:40:16;1.33;;;0.60;;
74259;SDS011;62630;55.874;37.516;2023-03-05T04:42:42;4.38;;;0.70;;
74259;SDS011;62630;55.874;37.516;2023-03-05T04:45:08;0.95;;;0.40;;
74259;SDS011;62630;55.874;37.516;2023-03-05T04:47:35;5.82;;;0.88;;
74259;SDS011;62630;55.874;37.516;2023-03-05T04:50:01;0.50;;;0.47;;
74259;SDS011;62630;55.874;37.516;2023-03-05T04:52:28;1.45;;;0.55;;
74259;SDS011;62630;55.874;37.516;2023-03-05T04:54:54;2.88;;;0.70;;
74259;SDS011;62630;55.874;37.516;2023-03-05T04:57:19;2.15;;;0.50;;
74259;SDS011;62630;55.874;37.516;2023-03-05T04:59:45;1.05;;;0.60;;
74259;SDS011;62630;55.874;37.516;2023-03-05T05:02:10;2.35;;;1.20;;
74259;SDS011;62630;55.874;37.516;2023-03-05T05:04:36;1.05;;;0.82;;
74259;SDS011;62630;55.874;37.516;2023-03-05T05:07:02;1.52;;;0.60;;
74259;SDS011;62630;55.874;37.516;2023-03-05T05:09:28;1.45;;;0.60;;
74259;SDS011;62630;55.874;37.516;2023-03-05T05:11:54;1.50;;;0.80;;
74259;SDS011;62630;55.874;37.516;2023-03-05T05:14:20;4.55;;;0.60;;
74259;SDS011;62630;55.874;37.516;2023-03-05T05:16:46;2.38;;;0.98;;
74259;SDS011;62630;55.874;37.516;2023-03-05T05:19:11;1.35;;;0.70;;
74259;SDS011;62630;55.874;37.516;2023-03-05T05:21:37;2.80;;;0.77;;
74259;SDS011;62630;55.874;37.516;2023-03-05T05:24:03;2.75;;;0.40;;
74259;SDS011;62630;55.874;37.516;2023-03-05T05:26:28;0.88;;;0.40;;
74259;SDS011;62630;55.874;37.516;2023-03-05T05:28:54;0.60;;;0.30;;
74259;SDS011;62630;55.874;37.516;2023-03-05T05:31:20;1.50;;;0.60;;
74259;SDS011;62630;55.874;37.516;2023-03-05T05:33:45;2.42;;;0.52;;
74259;SDS011;62630;55.874;37.516;2023-03-05T05:36:12;1.63;;;0.40;;
74259;SDS011;62630;55.874;37.516;2023-03-05T05:38:38;1.13;;;0.70;;
74259;SDS011;62630;55.874;37.516;2023-03-05T05:41:14;1.13;;;0.60;;
74259;SDS011;62630;55.874;37.516;2023-03-05T05:43:41;1.35;;;0.80;;
74259;SDS011;62630;55.874;37.516;2023-03-05T05:46:09;4.70;;;0.82;;
74259;SDS011;62630;55.874;37.516;2023-03-05T05:48:36;3.38;;;0.50;;
74259;SDS011;62630;55.874;37.516;2023-03-05T05:51:06;1.23;;;0.60;;
74259;SDS011;62630;55.874;37.516;2023-03-05T05:53:40;0.77;;;0.60;;
74259;SDS011;62630;55.874;37.516;2023-03-05T05:56:07;0.75;;;0.55;;
74259;SDS011;62630;55.874;37.516;2023-03-05T05:58:34;0.82;;;0.63;;
74259;SDS011;62630;55.874;37.516;2023-03-05T06:01:00;2.78;;;0.60;;
74259;SDS011;62630;55.874;37.516;2023-03-05T06:03:26;1.73;;;0.47;;
74259;SDS011;62630;55.874;37.516;2023-03-05T06:05:52;1.85;;;0.65;;
74259;SDS011;62630;55.874;37.516;2023-03-05T06:08:17;1.20;;;0.93;;
74259;SDS011;62630;55.874;37.516;2023-03-05T06:10:43;2.83;;;0.60;;
74259;SDS011;62630;55.874;37.516;2023-03-05T06:13:08;2.60;;;0.70;;
74259;SDS011;62630;55.874;37.516;2023-03-05T06:15:34;0.98;;;0.80;;
74259;SDS011;62630;55.874;37.516;2023-03-05T06:18:00;0.52;;;0.43;;
74259;SDS011;62630;55.874;37.516;2023-03-05T06:20:26;0.98;;;0.75;;
74259;SDS011;62630;55.874;37.516;2023-03-05T06:22:52;1.67;;;0.77;;
74259;SDS011;62630;55.874;37.516;2023-03-05T06:25:18;1.70;;;0.77;;
74259;SDS011;62630;55.874;37.516;2023-03-05T06:27:43;1.60;;;0.90;;
74259;SDS011;62630;55.874;37.516;2023-03-05T06:30:09;0.98;;;0.60;;
74259;SDS011;62630;55.874;37.516;2023-03-05T06:32:36;1.33;;;0.80;;
74259;SDS011;62630;55.874;37.516;2023-03-05T06:35:01;1.48;;;1.10;;
74259;SDS011;62630;55.874;37.516;2023-03-05T06:37:27;2.80;;;0.98;;
74259;SDS011;62630;55.874;37.516;2023-03-05T06:39:55;1.92;;;0.63;;
74259;SDS011;62630;55.874;37.516;2023-03-05T06:42:21;2.53;;;0.70;;
74259;SDS011;62630;55.874;37.516;2023-03-05T06:44:46;1.73;;;0.80;;
74259;SDS011;62630;55.874;37.516;2023-03-05T06:47:12;0.93;;;0.82;;
74259;SDS011;62630;55.874;37.516;2023-03-05T06:49:38;2.35;;;0.80;;
74259;SDS011;62630;55.874;37.516;2023-03-05T06:52:05;3.25;;;0.88;;
74259;SDS011;62630;55.874;37.516;2023-03-05T06:54:31;4.13;;;1.27;;
74259;SDS011;62630;55.874;37.516;2023-03-05T06:56:57;3.63;;;1.20;;
74259;SDS011;62630;55.874;37.516;2023-03-05T06:59:22;1.17;;;0.90;;
74259;SDS011;62630;55.874;37.516;2023-03-05T07:01:48;1.58;;;1.00;;
74259;SDS011;62630;55.874;37.516;2023-03-05T07:04:14;2.35;;;1.02;;
74259;SDS011;62630;55.874;37.516;2023-03-05T07:06:49;1.55;;;1.05;;
74259;SDS011;62630;55.874;37.516;2023-03-05T07:09:15;3.08;;;1.10;;
74259;SDS011;62630;55.874;37.516;2023-03-05T07:11:40;2.92;;;1.30;;
74259;SDS011;62630;55.874;37.516;2023-03-05T07:14:06;1.65;;;1.20;;
74259;SDS011;62630;55.874;37.516;2023-03-05T07:16:32;5.50;;;1.48;;
74259;SDS011;62630;55.874;37.516;2023-03-05T07:19:00;3.67;;;1.50;;
74259;SDS011;62630;55.874;37.516;2023-03-05T07:21:28;2.60;;;1.30;;
74259;SDS011;62630;55.874;37.516;2023-03-05T07:23:57;5.43;;;1.70;;
74259;SDS011;62630;55.874;37.516;2023-03-05T07:26:28;1.63;;;1.52;;
74259;SDS011;62630;55.874;37.516;2023-03-05T07:28:57;3.53;;;2.08;;
74259;SDS011;62630;55.874;37.516;2023-03-05T07:31:23;6.30;;;2.13;;
74259;SDS011;62630;55.874;37.516;2023-03-05T07:33:55;3.38;;;2.13;;
74259;SDS011;62630;55.874;37.516;2023-03-05T07:36:21;4.82;;;1.80;;
74259;SDS011;62630;55.874;37.516;2023-03-05T07:38:50;4.93;;;1.42;;
74259;SDS011;62630;55.874;37.516;2023-03-05T07:41:16;5.95;;;2.20;;
74259;SDS011;62630;55.874;37.516;2023-03-05T07:43:48;1.90;;;1.45;;
74259;SDS011;62630;55.874;37.516;2023-03-05T07:46:15;3.63;;;1.55;;
74259;SDS011;62630;55.874;37.516;2023-03-05T07:51:09;2.75;;;1.95;;
74259;SDS011;62630;55.874;37.516;2023-03-05T07:53:40;3.90;;;2.08;;
74259;SDS011;62630;55.874;37.516;2023-03-05T07:56:07;3.85;;;1.52;;
74259;SDS011;62630;55.874;37.516;2023-03-05T07:58:33;1.60;;;1.30;;
74259;SDS011;62630;55.874;37.516;2023-03-05T08:00:59;2.33;;;1.80;;
74259;SDS011;62630;55.874;37.516;2023-03-05T08:03:24;2.03;;;1.55;;
74259;SDS011;62630;55.874;37.516;2023-03-05T08:05:50;2.72;;;1.58;;
74259;SDS011;62630;55.874;37.516;2023-03-05T08:08:15;1.60;;;1.42;;
74259;SDS011;62630;55.874;37.516;2023-03-05T08:10:42;2.22;;;1.67;;
74259;SDS011;62630;55.874;37.516;2023-03-05T08:13:08;2.78;;;1.95;;
74259;SDS011;62630;55.874;37.516;2023-03-05T08:15:35;4.38;;;2.20;;
74259;SDS011;62630;55.874;37.516;2023-03-05T08:18:01;2.80;;;1.80;;
74259;SDS011;62630;55.874;37.516;2023-03-05T08:20:27;1.98;;;1.63;;
74259;SDS011;62630;55.874;37.516;2023-03-05T08:22:53;2.47;;;1.70;;
74259;SDS011;62630;55.874;37.516;2023-03-05T08:25:18;5.35;;;2.10;;
74259;SDS011;62630;55.874;37.516;2023-03-05T08:27:44;8.82;;;1.60;;
74259;SDS011;62630;55.874;37.516;2023-03-05T08:30:12;2.30;;;1.65;;
74259;SDS011;62630;55.874;37.516;2023-03-05T08:32:43;1.75;;;1.42;;
74259;SDS011;62630;55.874;37.516;2023-03-05T08:35:08;2.20;;;1.63;;
74259;SDS011;62630;55.874;37.516;2023-03-05T08:37:35;3.13;;;2.00;;
74259;SDS011;62630;55.874;37.516;2023-03-05T08:40:00;6.07;;;2.17;;
74259;SDS011;62630;55.874;37.516;2023-03-05T08:42:26;3.35;;;2.10;;
74259;SDS011;62630;55.874;37.516;2023-03-05T08:44:51;5.13;;;2.33;;
74259;SDS011;62630;55.874;37.516;2023-03-05T08:47:17;4.03;;;2.47;;
74259;SDS011;62630;55.874;37.516;2023-03-05T08:49:44;3.78;;;1.90;;
74259;SDS011;62630;55.874;37.516;2023-03-05T08:52:10;5.90;;;2.58;;
74259;SDS011;62630;55.874;37.516;2023-03-05T08:54:37;4.38;;;2.17;;
74259;SDS011;62630;55.874;37.516;2023-03-05T08:57:02;3.78;;;1.88;;
74259;SDS011;62630;55.874;37.516;2023-03-05T08:59:28;2.70;;;1.90;;
74259;SDS011;62630;55.874;37.516;2023-03-05T09:01:54;4.40;;;2.13;;
74259;SDS011;62630;55.874;37.516;2023-03-05T09:04:20;4.07;;;2.40;;
74259;SDS011;62630;55.874;37.516;2023-03-05T09:06:45;10.18;;;2.97;;
74259;SDS011;62630;55.874;37.516;2023-03-05T09:09:11;4.13;;;2.40;;
74259;SDS011;62630;55.874;37.516;2023-03-05T09:11:37;6.55;;;3.15;;
74259;SDS011;62630;55.874;37.516;2023-03-05T09:14:04;3.80;;;2.15;;
74259;SDS011;62630;55.874;37.516;2023-03-05T09:16:39;6.40;;;2.42;;
74259;SDS011;62630;55.874;37.516;2023-03-05T09:19:05;2.50;;;1.73;;
74259;SDS011;62630;55.874;37.516;2023-03-05T09:21:34;4.25;;;2.42;;
74259;SDS011;62630;55.874;37.516;2023-03-05T09:24:00;8.00;;;2.58;;
74259;SDS011;62630;55.874;37.516;2023-03-05T09:26:27;2.33;;;1.65;;
74259;SDS011;62630;55.874;37.516;2023-03-05T09:28:53;2.08;;;1.83;;
74259;SDS011;62630;55.874;37.516;2023-03-05T09:31:18;3.67;;;1.92;;
74259;SDS011;62630;55.874;37.516;2023-03-05T09:33:44;2.58;;;1.50;;
74259;SDS011;62630;55.874;37.516;2023-03-05T09:36:19;4.50;;;1.77;;
74259;SDS011;62630;55.874;37.516;2023-03-05T09:38:50;3.30;;;2.03;;
74259;SDS011;62630;55.874;37.516;2023-03-05T09:41:18;4.82;;;2.88;;
74259;SDS011;62630;55.874;37.516;2023-03-05T09:55:37;3.15;;;2.17;;
74259;SDS011;62630;55.874;37.516;2023-03-05T09:58:09;4.88;;;2.45;;
74259;SDS011;62630;55.874;37.516;2023-03-05T10:00:44;2.55;;;1.90;;
74259;SDS011;62630;55.874;37.516;2023-03-05T10:03:18;2.95;;;2.08;;
74259;SDS011;62630;55.874;37.516;2023-03-05T10:06:14;1.90;;;1.70;;
74259;SDS011;62630;55.874;37.516;2023-03-05T10:14:02;3.55;;;2.28;;
74259;SDS011;62630;55.874;37.516;2023-03-05T10:19:05;3.35;;;2.53;;
74259;SDS011;62630;55.874;37.516;2023-03-05T10:26:51;7.70;;;1.98;;
74259;SDS011;62630;55.874;37.516;2023-03-05T10:37:38;2.97;;;1.90;;
74259;SDS011;62630;55.874;37.516;2023-03-05T10:45:39;6.03;;;3.78;;
74259;SDS011;62630;55.874;37.516;2023-03-05T10:51:15;3.40;;;2.40;;
74259;SDS011;62630;55.874;37.516;2023-03-05T10:54:31;4.57;;;2.75;;
74259;SDS011;62630;55.874;37.516;2023-03-05T10:56:33;4.40;;;3.60;;
74259;SDS011;62630;55.874;37.516;2023-03-05T10:58:59;4.50;;;3.45;;
74259;SDS011;62630;55.874;37.516;2023-03-05T11:01:26;7.60;;;3.55;;
74259;SDS011;62630;55.874;37.516;2023-03-05T11:03:57;4.53;;;3.47;;
74259;SDS011;62630;55.874;37.516;2023-03-05T11:06:35;4.50;;;3.13;;
74259;SDS011;62630;55.874;37.516;2023-03-05T11:11:37;4.47;;;3.08;;
74259;SDS011;62630;55.874;37.516;2023-03-05T11:14:02;5.32;;;3.08;;
74259;SDS011;62630;55.874;37.516;2023-03-05T11:16:29;4.72;;;3.45;;
74259;SDS011;62630;55.874;37.516;2023-03-05T11:19:31;4.78;;;2.50;;
74259;SDS011;62630;55.874;37.516;2023-03-05T11:24:40;5.47;;;2.78;;
74259;SDS011;62630;55.874;37.516;2023-03-05T11:27:28;5.95;;;3.08;;
74259;SDS011;62630;55.874;37.516;2023-03-05T11:32:25;4.95;;;3.25;;
74259;SDS011;62630;55.874;37.516;2023-03-05T11:34:55;4.38;;;2.60;;
74259;SDS011;62630;55.874;37.516;2023-03-05T11:42:32;5.68;;;2.83;;
74259;SDS011;62630;55.874;37.516;2023-03-05T11:44:58;4.53;;;2.92;;
74259;SDS011;62630;55.874;37.516;2023-03-05T11:47:27;3.60;;;2.88;;
74259;SDS011;62630;55.874;37.516;2023-03-05T11:50:21;3.25;;;2.65;;
74259;SDS011;62630;55.874;37.516;2023-03-05T11:55:29;3.08;;;2.45;;
74259;SDS011;62630;55.874;37.516;2023-03-05T12:00:51;3.83;;;2.13;;
74259;SDS011;62630;55.874;37.516;2023-03-05T12:03:18;4.10;;;1.98;;
74259;SDS011;62630;55.874;37.516;2023-03-05T12:05:47;2.75;;;2.20;;
74259;SDS011;62630;55.874;37.516;2023-03-05T12:08:21;3.67;;;1.80;;
74259;SDS011;62630;55.874;37.516;2023-03-05T12:10:53;7.43;;;2.58;;
74259;SDS011;62630;55.874;37.516;2023-03-05T12:13:26;5.43;;;2.63;;
74259;SDS011;62630;55.874;37.516;2023-03-05T12:23:58;2.17;;;1.95;;
74259;SDS011;62630;55.874;37.516;2023-03-05T12:29:29;3.65;;;2.17;;
74259;SDS011;62630;55.874;37.516;2023-03-05T12:34:54;3.08;;;2.22;;
74259;SDS011;62630;55.874;37.516;2023-03-05T12:39:48;3.28;;;2.28;;
74259;SDS011;62630;55.874;37.516;2023-03-05T12:53:11;3.10;;;2.00;;
74259;SDS011;62630;55.874;37.516;2023-03-05T12:58:52;2.90;;;1.98;;
74259;SDS011;62630;55.874;37.516;2023-03-05T13:01:35;6.63;;;2.75;;
74259;SDS011;62630;55.874;37.516;2023-03-05T13:09:28;4.55;;;2.28;;
74259;SDS011;62630;55.874;37.516;2023-03-05T13:11:59;2.65;;;1.75;;
74259;SDS011;62630;55.874;37.516;2023-03-05T13:17:23;2.42;;;1.63;;
74259;SDS011;62630;55.874;37.516;2023-03-05T13:19:58;2.92;;;1.73;;
74259;SDS011;62630;55.874;37.516;2023-03-05T13:22:25;4.95;;;1.50;;
74259;SDS011;62630;55.874;37.516;2023-03-05T13:25:25;3.47;;;1.35;;
74259;SDS011;62630;55.874;37.516;2023-03-05T13:27:45;1.73;;;1.08;;
74259;SDS011;62630;55.874;37.516;2023-03-05T13:30:20;1.35;;;1.00;;
74259;SDS011;62630;55.874;37.516;2023-03-05T13:32:48;5.32;;;1.58;;
74259;SDS011;62630;55.874;37.516;2023-03-05T13:35:16;2.63;;;1.73;;
74259;SDS011;62630;55.874;37.516;2023-03-05T13:37:56;6.88;;;1.73;;
74259;SDS011;62630;55.874;37.516;2023-03-05T13:40:27;2.58;;;1.52;;
74259;SDS011;62630;55.874;37.516;2023-03-05T13:42:55;2.83;;;1.80;;
74259;SDS011;62630;55.874;37.516;2023-03-05T13:45:34;1.90;;;1.50;;
74259;SDS011;62630;55.874;37.516;2023-03-05T13:48:01;2.65;;;1.60;;
74259;SDS011;62630;55.874;37.516;2023-03-05T13:50:38;2.67;;;1.73;;
74259;SDS011;62630;55.874;37.516;2023-03-05T13:53:24;3.42;;;1.90;;
74259;SDS011;62630;55.874;37.516;2023-03-05T13:55:53;3.40;;;1.95;;
74259;SDS011;62630;55.874;37.516;2023-03-05T14:06:40;3.92;;;2.53;;
74259;SDS011;62630;55.874;37.516;2023-03-05T14:09:22;3.75;;;2.30;;
74259;SDS011;62630;55.874;37.516;2023-03-05T14:11:52;3.50;;;2.42;;
74259;SDS011;62630;55.874;37.516;2023-03-05T14:14:20;3.63;;;2.47;;
74259;SDS011;62630;55.874;37.516;2023-03-05T14:16:47;5.97;;;3.22;;
74259;SDS011;62630;55.874;37.516;2023-03-05T14:22:00;3.83;;;2.40;;
74259;SDS011;62630;55.874;37.516;2023-03-05T14:24:26;5.82;;;3.10;;
74259;SDS011;62630;55.874;37.516;2023-03-05T14:27:05;3.40;;;2.28;;
74259;SDS011;62630;55.874;37.516;2023-03-05T14:29:37;3.15;;;2.20;;
74259;SDS011;62630;55.874;37.516;2023-03-05T14:32:31;3.42;;;2.10;;
74259;SDS011;62630;55.874;37.516;2023-03-05T14:34:57;3.78;;;2.15;;
74259;SDS011;62630;55.874;37.516;2023-03-05T14:37:30;6.93;;;2.97;;
74259;SDS011;62630;55.874;37.516;2023-03-05T14:40:21;3.65;;;2.25;;
74259;SDS011;62630;55.874;37.516;2023-03-05T14:42:51;5.78;;;2.45;;
74259;SDS011;62630;55.874;37.516;2023-03-05T14:45:22;3.95;;;2.30;;
74259;SDS011;62630;55.874;37.516;2023-03-05T14:47:50;4.70;;;3.05;;
74259;SDS011;62630;55.874;37.516;2023-03-05T14:50:21;5.78;;;3.03;;
74259;SDS011;62630;55.874;37.516;2023-03-05T14:52:49;4.88;;;2.72;;
74259;SDS011;62630;55.874;37.516;2023-03-05T14:55:18;4.20;;;2.25;;
74259;SDS011;62630;55.874;37.516;2023-03-05T14:57:46;2.90;;;1.70;;
74259;SDS011;62630;55.874;37.516;2023-03-05T15:02:42;4.60;;;2.42;;
74259;SDS011;62630;55.874;37.516;2023-03-05T15:05:08;4.32;;;2.30;;
74259;SDS011;62630;55.874;37.516;2023-03-05T15:07:33;3.75;;;2.33;;
74259;SDS011;62630;55.874;37.516;2023-03-05T15:09:59;4.13;;;2.70;;
74259;SDS011;62630;55.874;37.516;2023-03-05T15:12:25;3.80;;;2.40;;
74259;SDS011;62630;55.874;37.516;2023-03-05T15:14:51;8.98;;;3.85;;
74259;SDS011;62630;55.874;37.516;2023-03-05T15:17:19;4.30;;;2.83;;
74259;SDS011;62630;55.874;37.516;2023-03-05T15:19:45;6.07;;;2.90;;
74259;SDS011;62630;55.874;37.516;2023-03-05T15:22:12;5.35;;;3.45;;
74259;SDS011;62630;55.874;37.516;2023-03-05T15:24:38;7.88;;;3.60;;
74259;SDS011;62630;55.874;37.516;2023-03-05T15:27:04;5.35;;;3.60;;
74259;SDS011;62630;55.874;37.516;2023-03-05T15:29:30;5.05;;;2.25;;
74259;SDS011;62630;55.874;37.516;2023-03-05T15:31:56;6.63;;;3.55;;
74259;SDS011;62630;55.874;37.516;2023-03-05T15:34:21;5.15;;;3.03;;
74259;SDS011;62630;55.874;37.516;2023-03-05T15:36:47;9.45;;;3.10;;
74259;SDS011;62630;55.874;37.516;2023-03-05T15:39:12;5.07;;;2.78;;
74259;SDS011;62630;55.874;37.516;2023-03-05T15:41:38;5.05;;;2.83;;
74259;SDS011;62630;55.874;37.516;2023-03-05T15:44:03;5.57;;;2.72;;
74259;SDS011;62630;55.874;37.516;2023-03-05T15:46:29;5.50;;;2.80;;
74259;SDS011;62630;55.874;37.516;2023-03-05T15:48:55;3.58;;;2.30;;
74259;SDS011;62630;55.874;37.516;2023-03-05T15:51:20;5.30;;;3.28;;
74259;SDS011;62630;55.874;37.516;2023-03-05T15:53:46;4.35;;;2.33;;
74259;SDS011;62630;55.874;37.516;2023-03-05T15:56:13;3.85;;;2.20;;
74259;SDS011;62630;55.874;37.516;2023-03-05T16:01:07;5.47;;;3.03;;
74259;SDS011;62630;55.874;37.516;2023-03-05T16:03:36;5.85;;;2.67;;
74259;SDS011;62630;55.874;37.516;2023-03-05T16:06:02;4.15;;;2.78;;
74259;SDS011;62630;55.874;37.516;2023-03-05T16:08:29;4.18;;;2.53;;
74259;SDS011;62630;55.874;37.516;2023-03-05T16:10:59;5.70;;;3.42;;
74259;SDS011;62630;55.874;37.516;2023-03-05T16:13:25;7.68;;;3.30;;
74259;SDS011;62630;55.874;37.516;2023-03-05T16:15:53;5.20;;;2.78;;
74259;SDS011;62630;55.874;37.516;2023-03-05T16:18:19;5.38;;;2.83;;
74259;SDS011;62630;55.874;37.516;2023-03-05T16:20:45;5.88;;;2.90;;
74259;SDS011;62630;55.874;37.516;2023-03-05T16:23:11;6.50;;;3.58;;
74259;SDS011;62630;55.874;37.516;2023-03-05T16:25:37;4.78;;;2.97;;
74259;SDS011;62630;55.874;37.516;2023-03-05T16:28:03;5.90;;;3.33;;
74259;SDS011;62630;55.874;37.516;2023-03-05T16:30:29;6.60;;;3.40;;
74259;SDS011;62630;55.874;37.516;2023-03-05T16:32:57;6.65;;;3.58;;
74259;SDS011;62630;55.874;37.516;2023-03-05T16:35:23;6.10;;;3.70;;
74259;SDS011;62630;55.874;37.516;2023-03-05T16:37:49;4.82;;;3.00;;
74259;SDS011;62630;55.874;37.516;2023-03-05T16:40:15;5.65;;;3.45;;
74259;SDS011;62630;55.874;37.516;2023-03-05T16:42:40;5.93;;;3.25;;